sensor_id;sensor_type;location;lat;lon;timestamp;pressure;altitude;pressure_sealevel;temperature;humidity
39739;BME280;25422;48.286;8.484;2023-02-28T00:00:27;94398.63;;;-5.25;100.00
39739;BME280;25422;48.286;8.484;2023-02-28T00:02:53;94395.91;;;-5.20;100.00
39739;BME280;25422;48.286;8.484;2023-02-28T00:05:21;94400.38;;;-5.26;100.00
39739;BME280;25422;48.286;8.484;2023-02-28T00:07:48;94402.09;;;-5.26;100.00
39739;BME280;25422;48.286;8.484;2023-02-28T00:10:16;94396.16;;;-5.27;100.00
39739;BME280;25422;48.286;8.484;2023-02-28T00:12:49;94394.31;;;-5.23;100.00
39739;BME280;25422;48.286;8.484;2023-02-28T00:15:15;94400.91;;;-5.19;100.00
39739;BME280;25422;48.286;8.484;2023-02-28T00:17:40;94391.13;;;-5.28;100.00
39739;BME280;25422;48.286;8.484;2023-02-28T00:20:06;94391.91;;;-5.26;100.00
39739;BME280;25422;48.286;8.484;2023-02-28T00:22:35;94395.19;;;-5.24;100.00
39739;BME280;25422;48.286;8.484;2023-02-28T00:25:01;94386.66;;;-5.23;100.00
39739;BME280;25422;48.286;8.484;2023-02-28T00:27:26;94391.69;;;-5.21;100.00
39739;BME280;25422;48.286;8.484;2023-02-28T00:29:51;94383.56;;;-5.30;100.00
39739;BME280;25422;48.286;8.484;2023-02-28T00:32:19;94379.34;;;-5.31;100.00
39739;BME280;25422;48.286;8.484;2023-02-28T00:34:44;94383.41;;;-5.27;100.00
39739;BME280;25422;48.286;8.484;2023-02-28T00:37:10;94383.47;;;-5.28;100.00
39739;BME280;25422;48.286;8.484;2023-02-28T00:39:37;94379.41;;;-5.32;100.00
39739;BME280;25422;48.286;8.484;2023-02-28T00:42:04;94378.66;;;-5.34;100.00
39739;BME280;25422;48.286;8.484;2023-02-28T00:44:30;94381.81;;;-5.29;100.00
39739;BME280;25422;48.286;8.484;2023-02-28T00:46:56;94383.88;;;-5.37;100.00
39739;BME280;25422;48.286;8.484;2023-02-28T00:49:24;94377.63;;;-5.30;100.00
39739;BME280;25422;48.286;8.484;2023-02-28T00:51:50;94375.28;;;-5.35;100.00
39739;BME280;25422;48.286;8.484;2023-02-28T00:54:18;94376.72;;;-5.29;100.00
39739;BME280;25422;48.286;8.484;2023-02-28T00:56:46;94375.28;;;-5.35;100.00
39739;BME280;25422;48.286;8.484;2023-02-28T00:59:12;94369.38;;;-5.35;100.00
39739;BME280;25422;48.286;8.484;2023-02-28T01:01:38;94375.19;;;-5.33;100.00
39739;BME280;25422;48.286;8.484;2023-02-28T01:04:05;94378.78;;;-5.37;100.00
39739;BME280;25422;48.286;8.484;2023-02-28T01:06:31;94368.47;;;-5.34;100.00
39739;BME280;25422;48.286;8.484;2023-02-28T01:08:57;94375.28;;;-5.35;100.00
39739;BME280;25422;48.286;8.484;2023-02-28T01:11:23;94378.53;;;-5.31;100.00
39739;BME280;25422;48.286;8.484;2023-02-28T01:13:48;94371.91;;;-5.35;100.00
39739;BME280;25422;48.286;8.484;2023-02-28T01:16:14;94371.75;;;-5.32;100.00
39739;BME280;25422;48.286;8.484;2023-02-28T01:18:39;94371.03;;;-5.34;100.00
39739;BME280;25422;48.286;8.484;2023-02-28T01:21:07;94375.97;;;-5.31;100.00
39739;BME280;25422;48.286;8.484;2023-02-28T01:23:33;94371.69;;;-5.31;100.00
39739;BME280;25422;48.286;8.484;2023-02-28T01:26:04;94371.75;;;-5.32;100.00
39739;BME280;25422;48.286;8.484;2023-02-28T01:28:29;94368.59;;;-5.37;100.00
39739;BME280;25422;48.286;8.484;2023-02-28T01:30:55;94371.97;;;-5.37;100.00
39739;BME280;25422;48.286;8.484;2023-02-28T01:33:21;94367.63;;;-5.35;100.00
39739;BME280;25422;48.286;8.484;2023-02-28T01:35:46;94367.06;;;-5.42;100.00
39739;BME280;25422;48.286;8.484;2023-02-28T01:38:11;94362.81;;;-5.41;100.00
39739;BME280;25422;48.286;8.484;2023-02-28T01:40:37;94362.81;;;-5.41;100.00
39739;BME280;25422;48.286;8.484;2023-02-28T01:43:02;94367.47;;;-5.51;100.00
39739;BME280;25422;48.286;8.484;2023-02-28T01:45:28;94368.09;;;-5.46;100.00
39739;BME280;25422;48.286;8.484;2023-02-28T01:47:59;94358.78;;;-5.47;100.00
39739;BME280;25422;48.286;8.484;2023-02-28T01:50:28;94364.94;;;-5.51;100.00
39739;BME280;25422;48.286;8.484;2023-02-28T01:52:58;94366.41;;;-5.45;100.00
39739;BME280;25422;48.286;8.484;2023-02-28T01:55:25;94364.66;;;-5.45;100.00
39739;BME280;25422;48.286;8.484;2023-02-28T01:57:58;94362.13;;;-5.45;100.00
39739;BME280;25422;48.286;8.484;2023-02-28T02:00:26;94361.72;;;-5.54;100.00
39739;BME280;25422;48.286;8.484;2023-02-28T02:02:56;94360.47;;;-5.46;100.00
39739;BME280;25422;48.286;8.484;2023-02-28T02:05:25;94357.56;;;-5.57;100.00
39739;BME280;25422;48.286;8.484;2023-02-28T02:07:54;94356.81;;;-5.59;100.00
39739;BME280;25422;48.286;8.484;2023-02-28T02:10:32;94361.81;;;-5.57;100.00
39739;BME280;25422;48.286;8.484;2023-02-28T02:18:51;94353.69;;;-5.66;100.00
39739;BME280;25422;48.286;8.484;2023-02-28T02:35:38;94359.75;;;-5.68;100.00
39739;BME280;25422;48.286;8.484;2023-02-28T02:38:13;94356.38;;;-5.69;100.00
39739;BME280;25422;48.286;8.484;2023-02-28T02:40:56;94363.16;;;-5.68;100.00
39739;BME280;25422;48.286;8.484;2023-02-28T02:43:32;94359.25;;;-5.77;100.00
39739;BME280;25422;48.286;8.484;2023-02-28T02:46:05;94353.69;;;-5.85;100.00
39739;BME280;25422;48.286;8.484;2023-02-28T02:48:34;94353.69;;;-5.85;100.00
39739;BME280;25422;48.286;8.484;2023-02-28T02:51:05;94347.75;;;-5.85;100.00
39739;BME280;25422;48.286;8.484;2023-02-28T02:53:42;94356.03;;;-5.80;100.00
39739;BME280;25422;48.286;8.484;2023-02-28T02:56:10;94354.44;;;-5.83;100.00
39739;BME280;25422;48.286;8.484;2023-02-28T02:58:40;94352.84;;;-5.85;100.00
39739;BME280;25422;48.286;8.484;2023-02-28T03:01:13;94342.91;;;-5.92;100.00
39739;BME280;25422;48.286;8.484;2023-02-28T03:03:41;94348.72;;;-5.88;100.00
39739;BME280;25422;48.286;8.484;2023-02-28T03:06:07;94350.78;;;-5.96;100.00
39739;BME280;25422;48.286;8.484;2023-02-28T03:08:35;94359.41;;;-5.99;100.00
39739;BME280;25422;48.286;8.484;2023-02-28T03:11:05;94354.22;;;-5.97;100.00
39739;BME280;25422;48.286;8.484;2023-02-28T03:22:28;94345.34;;;-6.07;100.00
39739;BME280;25422;48.286;8.484;2023-02-28T03:27:35;94339.34;;;-6.06;100.00
39739;BME280;25422;48.286;8.484;2023-02-28T03:30:06;94334.38;;;-6.10;100.00
39739;BME280;25422;48.286;8.484;2023-02-28T03:33:08;94336.38;;;-6.16;100.00
39739;BME280;25422;48.286;8.484;2023-02-28T03:35:56;94339.63;;;-6.13;100.00
39739;BME280;25422;48.286;8.484;2023-02-28T03:38:31;94344.97;;;-6.19;100.00
39739;BME280;25422;48.286;8.484;2023-02-28T03:41:10;94349.31;;;-6.21;100.00
39739;BME280;25422;48.286;8.484;2023-02-28T03:43:40;94349.94;;;-6.16;100.00
39739;BME280;25422;48.286;8.484;2023-02-28T03:46:10;94339.44;;;-6.29;100.00
39739;BME280;25422;48.286;8.484;2023-02-28T03:48:42;94341.16;;;-6.29;100.00
39739;BME280;25422;48.286;8.484;2023-02-28T03:51:12;94337.78;;;-6.30;100.00
39739;BME280;25422;48.286;8.484;2023-02-28T03:53:45;94344.78;;;-6.35;100.00
39739;BME280;25422;48.286;8.484;2023-02-28T03:56:17;94346.44;;;-6.34;100.00
39739;BME280;25422;48.286;8.484;2023-02-28T03:58:49;94345.56;;;-6.33;100.00
39739;BME280;25422;48.286;8.484;2023-02-28T04:01:20;94354.78;;;-6.30;100.00
39739;BME280;25422;48.286;8.484;2023-02-28T04:03:49;94341.25;;;-6.31;100.00
39739;BME280;25422;48.286;8.484;2023-02-28T04:06:22;94336.75;;;-6.25;100.00
39739;BME280;25422;48.286;8.484;2023-02-28T04:08:48;94338.69;;;-6.31;100.00
39739;BME280;25422;48.286;8.484;2023-02-28T04:11:32;94341.78;;;-6.24;100.00
39739;BME280;25422;48.286;8.484;2023-02-28T04:13:58;94345.34;;;-6.28;100.00
39739;BME280;25422;48.286;8.484;2023-02-28T04:16:23;94339.22;;;-6.24;100.00
39739;BME280;25422;48.286;8.484;2023-02-28T04:18:49;94341.91;;;-6.27;100.00
39739;BME280;25422;48.286;8.484;2023-02-28T04:21:14;94341.16;;;-6.29;100.00
39739;BME280;25422;48.286;8.484;2023-02-28T04:23:40;94341.16;;;-6.29;100.00
39739;BME280;25422;48.286;8.484;2023-02-28T04:26:05;94353.44;;;-6.39;100.00
39739;BME280;25422;48.286;8.484;2023-02-28T04:28:31;94343.22;;;-6.37;100.00
39739;BME280;25422;48.286;8.484;2023-02-28T04:30:59;94346.63;;;-6.38;100.00
39739;BME280;25422;48.286;8.484;2023-02-28T04:33:25;94349.13;;;-6.37;100.00
39739;BME280;25422;48.286;8.484;2023-02-28T04:38:25;94352.63;;;-6.39;100.00
39739;BME280;25422;48.286;8.484;2023-02-28T04:40:50;94353.91;;;-6.29;100.00
39739;BME280;25422;48.286;8.484;2023-02-28T04:43:16;94347.28;;;-6.33;100.00
39739;BME280;25422;48.286;8.484;2023-02-28T04:45:41;94345.94;;;-6.42;100.00
39739;BME280;25422;48.286;8.484;2023-02-28T04:48:06;94343.16;;;-6.36;100.00
39739;BME280;25422;48.286;8.484;2023-02-28T04:50:32;94355.03;;;-6.36;100.00
39739;BME280;25422;48.286;8.484;2023-02-28T04:52:58;94352.63;;;-6.39;100.00
39739;BME280;25422;48.286;8.484;2023-02-28T04:55:23;94349.19;;;-6.38;100.00
39739;BME280;25422;48.286;8.484;2023-02-28T04:57:49;94354.28;;;-6.38;100.00
39739;BME280;25422;48.286;8.484;2023-02-28T05:00:14;94351.09;;;-6.44;100.00
39739;BME280;25422;48.286;8.484;2023-02-28T05:02:42;94351.31;;;-6.50;100.00
39739;BME280;25422;48.286;8.484;2023-02-28T05:05:07;94354.72;;;-6.49;100.00
39739;BME280;25422;48.286;8.484;2023-02-28T05:07:33;94354.97;;;-6.55;100.00
39739;BME280;25422;48.286;8.484;2023-02-28T05:09:58;94355.53;;;-6.49;100.00
39739;BME280;25422;48.286;8.484;2023-02-28T05:12:23;94359.59;;;-6.45;100.00
39739;BME280;25422;48.286;8.484;2023-02-28T05:14:49;94350.34;;;-6.46;100.00
39739;BME280;25422;48.286;8.484;2023-02-28T05:17:14;94359.03;;;-6.51;100.00
39739;BME280;25422;48.286;8.484;2023-02-28T05:19:40;94358.22;;;-6.52;100.00
39739;BME280;25422;48.286;8.484;2023-02-28T05:22:12;94341.47;;;-6.57;100.00
39739;BME280;25422;48.286;8.484;2023-02-28T05:24:38;94353.50;;;-6.61;100.00
39739;BME280;25422;48.286;8.484;2023-02-28T05:27:03;94354.28;;;-6.59;100.00
39739;BME280;25422;48.286;8.484;2023-02-28T05:29:29;94358.34;;;-6.55;100.00
39739;BME280;25422;48.286;8.484;2023-02-28T05:31:54;94352.25;;;-6.51;100.00
39739;BME280;25422;48.286;8.484;2023-02-28T05:34:20;94355.81;;;-6.55;100.00
39739;BME280;25422;48.286;8.484;2023-02-28T05:36:45;94351.97;;;-6.45;100.00
39739;BME280;25422;48.286;8.484;2023-02-28T05:39:11;94353.13;;;-6.52;100.00
39739;BME280;25422;48.286;8.484;2023-02-28T05:41:41;94355.66;;;-6.52;100.00
39739;BME280;25422;48.286;8.484;2023-02-28T05:44:08;94353.00;;;-6.49;100.00
39739;BME280;25422;48.286;8.484;2023-02-28T05:46:33;94362.34;;;-6.49;100.00
39739;BME280;25422;48.286;8.484;2023-02-28T05:48:59;94366.50;;;-6.47;100.00
39739;BME280;25422;48.286;8.484;2023-02-28T05:51:26;94371.75;;;-6.51;100.00
39739;BME280;25422;48.286;8.484;2023-02-28T05:53:51;94371.69;;;-6.50;100.00
39739;BME280;25422;48.286;8.484;2023-02-28T05:56:16;94368.47;;;-6.53;100.00
39739;BME280;25422;48.286;8.484;2023-02-28T05:58:42;94370.88;;;-6.50;100.00
39739;BME280;25422;48.286;8.484;2023-02-28T06:03:57;94374.88;;;-6.45;100.00
39739;BME280;25422;48.286;8.484;2023-02-28T06:06:22;94374.78;;;-6.41;100.00
39739;BME280;25422;48.286;8.484;2023-02-28T06:08:48;94369.69;;;-6.41;100.00
39739;BME280;25422;48.286;8.484;2023-02-28T06:11:13;94370.38;;;-6.38;100.00
39739;BME280;25422;48.286;8.484;2023-02-28T06:13:39;94373.44;;;-6.30;100.00
39739;BME280;25422;48.286;8.484;2023-02-28T06:16:04;94373.81;;;-6.39;100.00
39739;BME280;25422;48.286;8.484;2023-02-28T06:18:30;94372.91;;;-6.38;100.00
39739;BME280;25422;48.286;8.484;2023-02-28T06:20:56;94374.66;;;-6.38;100.00
39739;BME280;25422;48.286;8.484;2023-02-28T06:23:22;94389.78;;;-6.35;100.00
39739;BME280;25422;48.286;8.484;2023-02-28T06:25:48;94391.25;;;-6.30;100.00
39739;BME280;25422;48.286;8.484;2023-02-28T06:28:14;94389.56;;;-6.29;100.00
39739;BME280;25422;48.286;8.484;2023-02-28T06:30:40;94389.91;;;-6.38;100.00
39739;BME280;25422;48.286;8.484;2023-02-28T06:33:05;94391.44;;;-6.34;100.00
39739;BME280;25422;48.286;8.484;2023-02-28T06:35:31;94405.84;;;-6.33;100.00
39739;BME280;25422;48.286;8.484;2023-02-28T06:37:56;94399.09;;;-6.34;100.00
39739;BME280;25422;48.286;8.484;2023-02-28T06:40:22;94400.47;;;-6.27;100.00
39739;BME280;25422;48.286;8.484;2023-02-28T06:42:47;94410.53;;;-6.24;100.00
39739;BME280;25422;48.286;8.484;2023-02-28T06:45:13;94414.88;;;-6.26;100.00
39739;BME280;25422;48.286;8.484;2023-02-28T06:47:39;94416.97;;;-6.15;100.00
39739;BME280;25422;48.286;8.484;2023-02-28T06:50:08;94418.88;;;-6.20;100.00
39739;BME280;25422;48.286;8.484;2023-02-28T06:52:34;94417.69;;;-6.12;100.00
39739;BME280;25422;48.286;8.484;2023-02-28T06:55:06;94415.53;;;-6.00;100.00
39739;BME280;25422;48.286;8.484;2023-02-28T06:57:33;94422.84;;;-5.94;100.00
39739;BME280;25422;48.286;8.484;2023-02-28T07:00:00;94422.84;;;-5.94;100.00
39739;BME280;25422;48.286;8.484;2023-02-28T07:02:26;94416.28;;;-5.98;100.00
39739;BME280;25422;48.286;8.484;2023-02-28T07:04:52;94420.94;;;-5.89;100.00
39739;BME280;25422;48.286;8.484;2023-02-28T07:07:17;94420.56;;;-5.80;100.00
39739;BME280;25422;48.286;8.484;2023-02-28T07:09:43;94435.22;;;-5.85;100.00
39739;BME280;25422;48.286;8.484;2023-02-28T07:12:08;94427.47;;;-5.82;100.00
39739;BME280;25422;48.286;8.484;2023-02-28T07:14:33;94424.63;;;-5.76;100.00
39739;BME280;25422;48.286;8.484;2023-02-28T07:17:01;94434.22;;;-5.62;100.00
39739;BME280;25422;48.286;8.484;2023-02-28T07:19:26;94425.91;;;-5.65;100.00
39739;BME280;25422;48.286;8.484;2023-02-28T07:21:52;94432.38;;;-5.58;100.00
39739;BME280;25422;48.286;8.484;2023-02-28T07:24:17;94427.44;;;-5.61;100.00
39739;BME280;25422;48.286;8.484;2023-02-28T07:26:43;94427.50;;;-5.63;100.00
39739;BME280;25422;48.286;8.484;2023-02-28T07:29:08;94426.16;;;-5.71;100.00
39739;BME280;25422;48.286;8.484;2023-02-28T07:31:34;94426.16;;;-5.71;100.00
39739;BME280;25422;48.286;8.484;2023-02-28T07:33:59;94425.69;;;-5.61;100.00
39739;BME280;25422;48.286;8.484;2023-02-28T07:36:25;94429.66;;;-5.53;100.00
39739;BME280;25422;48.286;8.484;2023-02-28T07:38:50;94430.25;;;-5.48;100.00
39739;BME280;25422;48.286;8.484;2023-02-28T07:41:17;94423.47;;;-5.48;100.00
39739;BME280;25422;48.286;8.484;2023-02-28T07:43:44;94423.56;;;-5.51;100.00
39739;BME280;25422;48.286;8.484;2023-02-28T07:46:12;94420.28;;;-5.53;100.00
39739;BME280;25422;48.286;8.484;2023-02-28T07:48:37;94430.34;;;-5.50;100.00
39739;BME280;25422;48.286;8.484;2023-02-28T07:51:03;94431.34;;;-5.54;100.00
39739;BME280;25422;48.286;8.484;2023-02-28T07:53:29;94434.06;;;-5.57;100.00
39739;BME280;25422;48.286;8.484;2023-02-28T07:56:00;94432.13;;;-5.52;100.00
39739;BME280;25422;48.286;8.484;2023-02-28T07:58:26;94442.75;;;-5.42;100.00
39739;BME280;25422;48.286;8.484;2023-02-28T08:00:52;94439.56;;;-5.47;100.00
39739;BME280;25422;48.286;8.484;2023-02-28T08:03:20;94436.81;;;-5.43;100.00
39739;BME280;25422;48.286;8.484;2023-02-28T08:05:45;94437.13;;;-5.30;100.00
39739;BME280;25422;48.286;8.484;2023-02-28T08:08:11;94444.97;;;-5.34;100.00
39739;BME280;25422;48.286;8.484;2023-02-28T08:10:36;94444.44;;;-5.22;100.00
39739;BME280;25422;48.286;8.484;2023-02-28T08:13:02;94440.97;;;-5.21;100.00
39739;BME280;25422;48.286;8.484;2023-02-28T08:15:28;94427.94;;;-5.15;100.00
39739;BME280;25422;48.286;8.484;2023-02-28T08:17:53;94440.44;;;-5.28;100.00
39739;BME280;25422;48.286;8.484;2023-02-28T08:20:22;94437.94;;;-5.10;100.00
39739;BME280;25422;48.286;8.484;2023-02-28T08:22:47;94439.34;;;-5.03;100.00
39739;BME280;25422;48.286;8.484;2023-02-28T08:25:13;94447.31;;;-5.11;100.00
39739;BME280;25422;48.286;8.484;2023-02-28T08:27:38;94450.66;;;-5.09;100.00
39739;BME280;25422;48.286;8.484;2023-02-28T08:30:04;94448.28;;;-5.13;100.00
39739;BME280;25422;48.286;8.484;2023-02-28T08:32:29;94455.75;;;-4.89;100.00
39739;BME280;25422;48.286;8.484;2023-02-28T08:34:55;94454.34;;;-4.97;100.00
39739;BME280;25422;48.286;8.484;2023-02-28T08:37:20;94453.88;;;-4.86;100.00
39739;BME280;25422;48.286;8.484;2023-02-28T08:39:46;94457.66;;;-4.95;100.00
39739;BME280;25422;48.286;8.484;2023-02-28T08:42:11;94450.69;;;-4.91;100.00
39739;BME280;25422;48.286;8.484;2023-02-28T08:44:37;94457.66;;;-4.76;100.00
39739;BME280;25422;48.286;8.484;2023-02-28T08:47:03;94459.41;;;-4.59;100.00
39739;BME280;25422;48.286;8.484;2023-02-28T08:49:28;94456.00;;;-4.77;100.00
39739;BME280;25422;48.286;8.484;2023-02-28T08:51:54;94451.31;;;-4.86;100.00
39739;BME280;25422;48.286;8.484;2023-02-28T08:54:20;94456.00;;;-4.77;100.00
39739;BME280;25422;48.286;8.484;2023-02-28T08:56:46;94458.56;;;-4.77;100.00
39739;BME280;25422;48.286;8.484;2023-02-28T08:59:12;94463.97;;;-4.65;100.00
39739;BME280;25422;48.286;8.484;2023-02-28T09:01:38;94462.44;;;-4.50;100.00
39739;BME280;25422;48.286;8.484;2023-02-28T09:04:04;94464.06;;;-4.30;100.00
39739;BME280;25422;48.286;8.484;2023-02-28T09:06:32;94459.56;;;-4.25;100.00
39739;BME280;25422;48.286;8.484;2023-02-28T09:08:57;94465.78;;;-4.31;100.00
39739;BME280;25422;48.286;8.484;2023-02-28T09:11:24;94465.72;;;-4.29;100.00
39739;BME280;25422;48.286;8.484;2023-02-28T09:13:49;94467.84;;;-4.20;100.00
39739;BME280;25422;48.286;8.484;2023-02-28T09:16:16;94474.72;;;-4.22;100.00
39739;BME280;25422;48.286;8.484;2023-02-28T09:18:42;94471.38;;;-4.22;100.00
39739;BME280;25422;48.286;8.484;2023-02-28T09:21:10;94474.69;;;-4.40;100.00
39739;BME280;25422;48.286;8.484;2023-02-28T09:23:37;94479.47;;;-4.32;100.00
39739;BME280;25422;48.286;8.484;2023-02-28T09:26:03;94484.91;;;-4.40;100.00
39739;BME280;25422;48.286;8.484;2023-02-28T09:28:29;94486.38;;;-4.34;100.00
39739;BME280;25422;48.286;8.484;2023-02-28T09:30:54;94487.03;;;-4.30;100.00
39739;BME280;25422;48.286;8.484;2023-02-28T09:33:21;94488.94;;;-4.34;100.00
39739;BME280;25422;48.286;8.484;2023-02-28T09:35:47;94481.16;;;-4.13;100.00
39739;BME280;25422;48.286;8.484;2023-02-28T09:38:13;94483.84;;;-3.99;100.00
39739;BME280;25422;48.286;8.484;2023-02-28T09:41:00;94482.50;;;-4.06;100.00
39739;BME280;25422;48.286;8.484;2023-02-28T09:43:33;94484.31;;;-4.08;100.00
39739;BME280;25422;48.286;8.484;2023-02-28T09:48:49;94484.91;;;-3.85;100.00
39739;BME280;25422;48.286;8.484;2023-02-28T09:53:44;94484.31;;;-3.73;100.00
39739;BME280;25422;48.286;8.484;2023-02-28T09:56:12;94488.16;;;-3.64;100.00
39739;BME280;25422;48.286;8.484;2023-02-28T10:01:39;94488.34;;;-3.51;100.00
39739;BME280;25422;48.286;8.484;2023-02-28T10:04:16;94492.66;;;-3.52;100.00
39739;BME280;25422;48.286;8.484;2023-02-28T10:06:49;94497.69;;;-3.50;100.00
39739;BME280;25422;48.286;8.484;2023-02-28T10:11:45;94502.59;;;-3.46;100.00
39739;BME280;25422;48.286;8.484;2023-02-28T10:14:15;94503.84;;;-3.54;100.00
39739;BME280;25422;48.286;8.484;2023-02-28T10:16:43;94498.28;;;-3.45;100.00
39739;BME280;25422;48.286;8.484;2023-02-28T10:19:25;94500.25;;;-3.50;100.00
39739;BME280;25422;48.286;8.484;2023-02-28T10:22:01;94497.72;;;-3.17;100.00
39739;BME280;25422;48.286;8.484;2023-02-28T10:24:37;94501.59;;;-3.10;100.00
39739;BME280;25422;48.286;8.484;2023-02-28T10:27:16;94512.00;;;-3.13;100.00
39739;BME280;25422;48.286;8.484;2023-02-28T10:29:49;94506.13;;;-3.15;100.00
39739;BME280;25422;48.286;8.484;2023-02-28T10:32:20;94505.25;;;-2.98;100.00
39739;BME280;25422;48.286;8.484;2023-02-28T10:34:52;94517.00;;;-2.94;100.00
39739;BME280;25422;48.286;8.484;2023-02-28T10:37:20;94509.78;;;-3.03;100.00
39739;BME280;25422;48.286;8.484;2023-02-28T10:39:46;94510.59;;;-3.18;100.00
39739;BME280;25422;48.286;8.484;2023-02-28T10:42:21;94519.59;;;-3.11;100.00
39739;BME280;25422;48.286;8.484;2023-02-28T10:44:47;94519.78;;;-3.32;100.00
39739;BME280;25422;48.286;8.484;2023-02-28T10:47:15;94524.53;;;-3.24;100.00
39739;BME280;25422;48.286;8.484;2023-02-28T10:49:47;94521.72;;;-3.19;100.00
39739;BME280;25422;48.286;8.484;2023-02-28T10:52:13;94507.91;;;-2.99;100.00
39739;BME280;25422;48.286;8.484;2023-02-28T10:54:38;94513.63;;;-2.94;100.00
39739;BME280;25422;48.286;8.484;2023-02-28T10:57:30;94507.00;;;-2.82;100.00
39739;BME280;25422;48.286;8.484;2023-02-28T11:00:13;94511.50;;;-2.38;100.00
39739;BME280;25422;48.286;8.484;2023-02-28T11:02:39;94511.81;;;-2.44;100.00
39739;BME280;25422;48.286;8.484;2023-02-28T11:05:30;94504.56;;;-2.52;100.00
39739;BME280;25422;48.286;8.484;2023-02-28T11:08:10;94512.16;;;-2.66;100.00
39739;BME280;25422;48.286;8.484;2023-02-28T11:10:38;94506.38;;;-2.54;100.00
39739;BME280;25422;48.286;8.484;2023-02-28T11:13:05;94521.00;;;-2.72;100.00
39739;BME280;25422;48.286;8.484;2023-02-28T11:15:32;94525.56;;;-2.61;100.00
39739;BME280;25422;48.286;8.484;2023-02-28T11:17:59;94525.06;;;-2.68;100.00
39739;BME280;25422;48.286;8.484;2023-02-28T11:20:28;94537.00;;;-2.84;100.00
39739;BME280;25422;48.286;8.484;2023-02-28T11:22:56;94527.78;;;-2.55;100.00
39739;BME280;25422;48.286;8.484;2023-02-28T11:25:25;94528.63;;;-2.55;100.00
39739;BME280;25422;48.286;8.484;2023-02-28T11:27:54;94539.75;;;-2.72;100.00
39739;BME280;25422;48.286;8.484;2023-02-28T11:32:54;94529.00;;;-2.62;100.00
39739;BME280;25422;48.286;8.484;2023-02-28T11:35:40;94523.25;;;-2.50;100.00
39739;BME280;25422;48.286;8.484;2023-02-28T11:38:12;94532.97;;;-2.57;100.00
39739;BME280;25422;48.286;8.484;2023-02-28T11:46:19;94528.13;;;-2.61;100.00
39739;BME280;25422;48.286;8.484;2023-02-28T11:48:52;94524.56;;;-2.59;100.00
39739;BME280;25422;48.286;8.484;2023-02-28T11:51:33;94526.56;;;-2.48;100.00
39739;BME280;25422;48.286;8.484;2023-02-28T11:54:23;94528.38;;;-2.34;100.00
39739;BME280;25422;48.286;8.484;2023-02-28T11:56:55;94530.03;;;-2.17;100.00
39739;BME280;25422;48.286;8.484;2023-02-28T12:02:15;94526.94;;;-2.08;100.00
39739;BME280;25422;48.286;8.484;2023-02-28T12:04:52;94528.88;;;-2.11;100.00
39739;BME280;25422;48.286;8.484;2023-02-28T12:07:37;94529.94;;;-1.69;100.00
39739;BME280;25422;48.286;8.484;2023-02-28T12:12:47;94525.78;;;-2.02;100.00
39739;BME280;25422;48.286;8.484;2023-02-28T12:15:28;94524.41;;;-1.77;100.00
39739;BME280;25422;48.286;8.484;2023-02-28T12:18:20;94523.63;;;-1.63;100.00
39739;BME280;25422;48.286;8.484;2023-02-28T12:21:04;94517.47;;;-1.45;100.00
39739;BME280;25422;48.286;8.484;2023-02-28T12:23:51;94519.16;;;-1.60;100.00
39739;BME280;25422;48.286;8.484;2023-02-28T12:26:39;94518.59;;;-1.65;100.00
39739;BME280;25422;48.286;8.484;2023-02-28T12:31:43;94512.50;;;-1.78;100.00
39739;BME280;25422;48.286;8.484;2023-02-28T12:34:20;94509.66;;;-1.74;100.00
39739;BME280;25422;48.286;8.484;2023-02-28T12:36:49;94509.81;;;-1.61;100.00
39739;BME280;25422;48.286;8.484;2023-02-28T12:39:39;94493.13;;;-1.68;100.00
39739;BME280;25422;48.286;8.484;2023-02-28T12:42:10;94498.28;;;-1.84;100.00
39739;BME280;25422;48.286;8.484;2023-02-28T12:45:08;94494.22;;;-1.58;100.00
39739;BME280;25422;48.286;8.484;2023-02-28T12:47:38;94503.41;;;-1.54;100.00
39739;BME280;25422;48.286;8.484;2023-02-28T12:50:06;94500.13;;;-1.41;100.00
39739;BME280;25422;48.286;8.484;2023-02-28T12:53:03;94501.09;;;-1.58;100.00
39739;BME280;25422;48.286;8.484;2023-02-28T12:58:20;94491.13;;;-1.48;100.00
39739;BME280;25422;48.286;8.484;2023-02-28T13:04:25;94496.78;;;-1.27;100.00
39739;BME280;25422;48.286;8.484;2023-02-28T13:09:59;94499.31;;;-1.13;100.00
39739;BME280;25422;48.286;8.484;2023-02-28T13:12:25;94498.81;;;-1.18;100.00
39739;BME280;25422;48.286;8.484;2023-02-28T13:15:08;94504.13;;;-1.07;100.00
39739;BME280;25422;48.286;8.484;2023-02-28T13:17:41;94507.03;;;-1.27;100.00
39739;BME280;25422;48.286;8.484;2023-02-28T13:20:22;94506.19;;;-1.28;100.00
39739;BME280;25422;48.286;8.484;2023-02-28T13:22:50;94499.97;;;-1.24;100.00
39739;BME280;25422;48.286;8.484;2023-02-28T13:27:51;94515.75;;;-1.30;100.00
39739;BME280;25422;48.286;8.484;2023-02-28T13:33:36;94520.75;;;-1.43;100.00
39739;BME280;25422;48.286;8.484;2023-02-28T13:38:45;94519.19;;;-1.45;100.00
39739;BME280;25422;48.286;8.484;2023-02-28T13:46:27;94521.69;;;-1.44;100.00
39739;BME280;25422;48.286;8.484;2023-02-28T13:48:53;94526.09;;;-1.31;100.00
39739;BME280;25422;48.286;8.484;2023-02-28T13:51:38;94521.69;;;-1.44;100.00
39739;BME280;25422;48.286;8.484;2023-02-28T14:00:02;94508.28;;;-1.49;100.00
39739;BME280;25422;48.286;8.484;2023-02-28T14:05:19;94515.19;;;-1.35;100.00
39739;BME280;25422;48.286;8.484;2023-02-28T14:07:53;94511.81;;;-1.07;100.00
39739;BME280;25422;48.286;8.484;2023-02-28T14:10:28;94506.66;;;-0.78;100.00
39739;BME280;25422;48.286;8.484;2023-02-28T14:18:27;94498.34;;;-0.25;100.00
39739;BME280;25422;48.286;8.484;2023-02-28T14:21:11;94504.25;;;-0.10;100.00
39739;BME280;25422;48.286;8.484;2023-02-28T14:29:43;94504.16;;;-0.36;100.00
39739;BME280;25422;48.286;8.484;2023-02-28T14:32:27;94500.38;;;-0.45;100.00
39739;BME280;25422;48.286;8.484;2023-02-28T14:37:29;94503.25;;;-0.49;100.00
39739;BME280;25422;48.286;8.484;2023-02-28T14:39:57;94508.09;;;-0.45;100.00
39739;BME280;25422;48.286;8.484;2023-02-28T14:42:35;94515.56;;;-0.13;100.00
39739;BME280;25422;48.286;8.484;2023-02-28T14:45:02;94510.75;;;-0.05;100.00
39739;BME280;25422;48.286;8.484;2023-02-28T14:47:31;94511.50;;;-0.03;100.00
39739;BME280;25422;48.286;8.484;2023-02-28T14:49:58;94516.88;;;-0.20;100.00